Time;durP1;ratioP1;P1;durP2;ratioP2;P2;SDS_P1;SDS_P2;PMS_P1;PMS_P2;Temp;Humidity;BMP_temperature;BMP_pressure;BME280_temperature;BME280_humidity;BME280_pressure;Samples;Min_cycle;Max_cycle;Signal;HPM_P1;HPM_P2
2022/01/25 00:09:20;;;;;;;0.00;0.00;;;;;;;;;;1756637;28;20184;-63
2022/01/25 00:15:16;;;;;;;0.00;0.00;;;;;;;;;;1757487;28;20179;-63
2022/01/25 00:24:49;;;;;;;0.00;0.00;;;;;;;;;;1731317;28;20203;-63
2022/01/25 00:25:58;;;;;;;0.00;0.00;;;;;;;;;;1725172;28;20314;-63
2022/01/25 00:27:08;;;;;;;0.00;0.00;;;;;;;;;;1727849;28;20284;-63
2022/01/25 00:28:17;;;;;;;0.00;0.00;;;;;;;;;;1752876;28;20182;-63
2022/01/25 00:29:13;;;;;;;0.00;0.00;;;;;;;;;;1758835;28;20227;-63
2022/01/25 00:30:25;;;;;;;0.10;0.10;;;;;;;;;;1757708;28;20281;-63
2022/01/25 00:31:17;;;;;;;0.00;0.00;;;;;;;;;;1750407;28;20294;-63
2022/01/25 00:32:09;;;;;;;0.00;0.00;;;;;;;;;;1756563;28;20239;-63
2022/01/25 00:33:01;;;;;;;0.00;0.00;;;;;;;;;;1751469;28;20320;-63
2022/01/25 00:33:53;;;;;;;0.00;0.00;;;;;;;;;;1757347;28;20618;-63
2022/01/25 00:34:45;;;;;;;0.00;0.00;;;;;;;;;;1759838;28;20197;-63
2022/01/25 00:35:36;;;;;;;0.00;0.00;;;;;;;;;;1753294;28;20229;-63
2022/01/25 00:36:32;;;;;;;0.00;0.00;;;;;;;;;;1759453;28;20225;-63
2022/01/25 00:37:23;;;;;;;0.00;0.00;;;;;;;;;;1756292;28;20210;-63
2022/01/25 00:38:15;;;;;;;0.00;0.00;;;;;;;;;;1757834;28;20208;-63
2022/01/25 00:39:07;;;;;;;0.00;0.00;;;;;;;;;;1756208;28;20217;-63
2022/01/25 00:39:59;;;;;;;0.00;0.00;;;;;;;;;;1757351;28;20201;-63
2022/01/25 00:40:50;;;;;;;0.00;0.00;;;;;;;;;;1756011;28;20809;-63
2022/01/25 00:41:42;;;;;;;0.00;0.00;;;;;;;;;;1758295;28;20204;-65
2022/01/25 00:42:34;;;;;;;0.00;0.00;;;;;;;;;;1756835;28;20571;-63
2022/01/25 00:43:27;;;;;;;0.00;0.00;;;;;;;;;;1757607;28;20316;-63
2022/01/25 00:44:18;;;;;;;0.00;0.00;;;;;;;;;;1757325;28;20295;-63
2022/01/25 00:45:12;;;;;;;0.00;0.00;;;;;;;;;;1755418;28;20205;-63
2022/01/25 00:46:07;;;;;;;0.00;0.00;;;;;;;;;;1756838;28;20220;-63
2022/01/25 00:47:01;;;;;;;0.00;0.00;;;;;;;;;;1756863;28;20291;-63
2022/01/25 00:47:52;;;;;;;0.00;0.00;;;;;;;;;;1759325;28;20208;-63
2022/01/25 00:48:48;;;;;;;0.00;0.00;;;;;;;;;;1756926;28;20197;-63
2022/01/25 00:49:40;;;;;;;0.00;0.00;;;;;;;;;;1759303;28;20651;-63
2022/01/25 00:50:39;;;;;;;0.00;0.00;;;;;;;;;;1752317;28;20304;-63
2022/01/25 00:53:57;;;;;;;0.00;0.00;;;;;;;;;;1755038;28;20262;-62
2022/01/25 00:54:50;;;;;;;0.00;0.00;;;;;;;;;;1752688;28;20255;-62
2022/01/25 00:55:42;;;;;;;0.00;0.00;;;;;;;;;;1755334;28;20220;-63
2022/01/25 00:56:35;;;;;;;0.00;0.00;;;;;;;;;;1758846;28;20252;-63
2022/01/25 00:57:27;;;;;;;0.00;0.00;;;;;;;;;;1757894;28;20205;-63
2022/01/25 00:58:18;;;;;;;0.00;0.00;;;;;;;;;;1758169;28;20205;-63
2022/01/25 00:59:12;;;;;;;0.00;0.00;;;;;;;;;;1755454;28;20631;-62
2022/01/25 01:00:04;;;;;;;0.00;0.00;;;;;;;;;;1752238;28;20201;-63
2022/01/25 01:00:57;;;;;;;0.00;0.00;;;;;;;;;;1755857;28;20233;-63
2022/01/25 01:01:49;;;;;;;0.00;0.00;;;;;;;;;;1757842;28;20205;-63
2022/01/25 01:02:41;;;;;;;0.00;0.00;;;;;;;;;;1755087;28;20201;-63
2022/01/25 01:03:32;;;;;;;0.00;0.00;;;;;;;;;;1753605;28;20240;-62
2022/01/25 01:04:25;;;;;;;0.00;0.00;;;;;;;;;;1753870;28;20233;-62
2022/01/25 01:05:16;;;;;;;0.00;0.00;;;;;;;;;;1750952;28;20664;-63
2022/01/25 01:06:08;;;;;;;0.00;0.00;;;;;;;;;;1757506;28;20224;-63
2022/01/25 01:07:02;;;;;;;0.00;0.00;;;;;;;;;;1757659;28;20560;-62
2022/01/25 01:07:54;;;;;;;0.00;0.00;;;;;;;;;;1759572;28;20204;-63
2022/01/25 01:08:45;;;;;;;0.00;0.00;;;;;;;;;;1757758;28;20925;-63
2022/01/25 01:09:40;;;;;;;0.00;0.00;;;;;;;;;;1759166;28;20292;-62
2022/01/25 01:10:31;;;;;;;0.00;0.00;;;;;;;;;;1753737;28;20649;-63
2022/01/25 01:11:29;;;;;;;0.00;0.00;;;;;;;;;;1752832;28;20919;-63
2022/01/25 01:12:40;;;;;;;0.00;0.00;;;;;;;;;;1757559;28;20227;-62
2022/01/25 01:13:53;;;;;;;0.00;0.00;;;;;;;;;;1756404;28;20628;-63
2022/01/25 01:15:01;;;;;;;0.00;0.00;;;;;;;;;;1752915;28;20182;-62
2022/01/25 01:16:01;;;;;;;0.00;0.00;;;;;;;;;;1753123;28;20306;-62
2022/01/25 01:17:14;;;;;;;0.00;0.00;;;;;;;;;;1756774;28;20256;-62
2022/01/25 01:29:08;;;;;;;0.00;0.00;;;;;;;;;;1754401;28;20198;-62
2022/01/25 01:30:09;;;;;;;0.00;0.00;;;;;;;;;;1752799;28;20194;-62
2022/01/25 01:31:07;;;;;;;0.00;0.00;;;;;;;;;;1756385;28;20273;-62
2022/01/25 01:32:09;;;;;;;0.00;0.00;;;;;;;;;;1756946;28;20243;-62
2022/01/25 01:34:39;;;;;;;0.00;0.00;;;;;;;;;;1758633;28;20678;-62
2022/01/25 01:35:49;;;;;;;0.00;0.00;;;;;;;;;;1752174;28;20288;-61
2022/01/25 01:37:16;;;;;;;0.00;0.00;;;;;;;;;;1758309;28;20278;-61
2022/01/25 01:38:27;;;;;;;0.10;0.10;;;;;;;;;;1752826;28;20678;-61
2022/01/25 01:39:45;;;;;;;0.00;0.00;;;;;;;;;;1757309;28;20548;-62
2022/01/25 01:40:55;;;;;;;0.08;0.08;;;;;;;;;;1754617;28;20228;-62
2022/01/25 01:41:57;;;;;;;0.10;0.10;;;;;;;;;;1757783;28;20291;-61
2022/01/25 01:43:06;;;;;;;0.00;0.00;;;;;;;;;;1759226;28;20197;-62
2022/01/25 01:44:00;;;;;;;0.10;0.10;;;;;;;;;;1756877;28;20592;-61
2022/01/25 01:45:08;;;;;;;0.00;0.00;;;;;;;;;;1752546;28;20553;-62
2022/01/25 01:46:19;;;;;;;0.00;0.00;;;;;;;;;;1755089;28;20698;-62
2022/01/25 01:47:06;;;;;;;0.00;0.00;;;;;;;;;;1727702;22;20276;-62
2022/01/25 01:48:03;;;;;;;0.00;0.00;;;;;;;;;;1717412;28;20189;-62
2022/01/25 01:48:58;;;;;;;0.00;0.00;;;;;;;;;;1724306;28;20212;-62
2022/01/25 01:49:50;;;;;;;0.00;0.00;;;;;;;;;;1730269;28;20215;-61
2022/01/25 01:50:41;;;;;;;0.00;0.00;;;;;;;;;;1720729;28;20232;-61
2022/01/25 01:51:36;;;;;;;0.00;0.00;;;;;;;;;;1723511;28;20208;-61
2022/01/25 01:52:28;;;;;;;0.10;0.10;;;;;;;;;;1726514;28;20208;-62
2022/01/25 01:53:21;;;;;;;0.00;0.00;;;;;;;;;;1727440;28;20239;-62
2022/01/25 01:54:14;;;;;;;0.00;0.00;;;;;;;;;;1723396;28;20208;-62
2022/01/25 01:55:08;;;;;;;0.00;0.00;;;;;;;;;;1721975;28;20203;-61
2022/01/25 01:55:59;;;;;;;0.00;0.00;;;;;;;;;;1722202;28;20232;-62
2022/01/25 01:56:51;;;;;;;0.00;0.00;;;;;;;;;;1722701;28;20301;-61
2022/01/25 01:57:43;;;;;;;0.00;0.00;;;;;;;;;;1724063;28;20227;-62
2022/01/25 01:58:36;;;;;;;0.00;0.00;;;;;;;;;;1723254;28;20235;-61
2022/01/25 01:59:27;;;;;;;0.00;0.00;;;;;;;;;;1723137;28;20212;-61
2022/01/25 02:00:20;;;;;;;0.00;0.00;;;;;;;;;;1720250;28;20258;-62
2022/01/25 02:01:15;;;;;;;0.00;0.00;;;;;;;;;;1722985;28;20228;-62
2022/01/25 02:02:06;;;;;;;0.00;0.00;;;;;;;;;;1723068;28;20234;-62
2022/01/25 02:02:59;;;;;;;0.00;0.00;;;;;;;;;;1723922;28;20463;-62
2022/01/25 02:03:50;;;;;;;0.00;0.00;;;;;;;;;;1719934;28;20231;-62
2022/01/25 02:04:42;;;;;;;0.00;0.00;;;;;;;;;;1724373;28;20204;-61
2022/01/25 02:05:34;;;;;;;0.00;0.00;;;;;;;;;;1717700;28;20718;-61
2022/01/25 02:06:26;;;;;;;0.00;0.00;;;;;;;;;;1723447;28;20228;-62
2022/01/25 02:07:18;;;;;;;0.00;0.00;;;;;;;;;;1719828;28;20205;-62
2022/01/25 02:08:10;;;;;;;0.00;0.00;;;;;;;;;;1723932;28;20323;-61
2022/01/25 02:09:07;;;;;;;0.00;0.00;;;;;;;;;;1722920;28;20204;-62
2022/01/25 02:09:59;;;;;;;0.00;0.00;;;;;;;;;;1722024;28;20193;-62
2022/01/25 02:10:51;;;;;;;0.05;0.05;;;;;;;;;;1719066;28;20372;-62
2022/01/25 02:11:43;;;;;;;0.00;0.00;;;;;;;;;;1722821;28;20205;-61
2022/01/25 02:12:34;;;;;;;0.00;0.00;;;;;;;;;;1723518;28;20366;-62
2022/01/25 02:13:26;;;;;;;0.00;0.00;;;;;;;;;;1721196;28;20216;-62
2022/01/25 02:14:18;;;;;;;0.00;0.00;;;;;;;;;;1723796;28;20208;-62
2022/01/25 02:15:10;;;;;;;0.00;0.00;;;;;;;;;;1720627;28;20219;-62
2022/01/25 02:16:06;;;;;;;0.00;0.00;;;;;;;;;;1720106;28;20363;-62
2022/01/25 02:17:07;;;;;;;0.00;0.00;;;;;;;;;;1721955;28;20201;-62
2022/01/25 02:22:37;;;;;;;0.00;0.00;;;;;;;;;;1724001;28;20191;-62
2022/01/25 02:23:28;;;;;;;0.00;0.00;;;;;;;;;;1722109;28;20216;-62
2022/01/25 02:24:20;;;;;;;0.00;0.00;;;;;;;;;;1721293;28;20228;-61
2022/01/25 02:25:11;;;;;;;0.00;0.00;;;;;;;;;;1720153;28;20216;-62
2022/01/25 02:26:05;;;;;;;0.00;0.00;;;;;;;;;;1720848;28;20273;-62
2022/01/25 02:26:57;;;;;;;0.00;0.00;;;;;;;;;;1722900;28;20205;-62
2022/01/25 02:27:49;;;;;;;0.00;0.00;;;;;;;;;;1724163;28;20197;-62
2022/01/25 02:28:41;;;;;;;0.00;0.00;;;;;;;;;;1721185;28;20237;-62
2022/01/25 02:29:34;;;;;;;0.00;0.00;;;;;;;;;;1723660;28;20211;-62
2022/01/25 02:30:25;;;;;;;0.00;0.00;;;;;;;;;;1719548;28;20269;-61
2022/01/25 02:31:18;;;;;;;0.00;0.00;;;;;;;;;;1723198;28;20235;-62
2022/01/25 02:32:09;;;;;;;0.00;0.00;;;;;;;;;;1722273;28;20635;-62
2022/01/25 02:33:01;;;;;;;0.00;0.00;;;;;;;;;;1723757;28;20651;-61
2022/01/25 02:33:52;;;;;;;0.03;0.03;;;;;;;;;;1723105;28;20204;-62
2022/01/25 02:34:45;;;;;;;0.00;0.00;;;;;;;;;;1724145;28;20200;-61
2022/01/25 02:35:37;;;;;;;0.00;0.00;;;;;;;;;;1719526;28;20559;-62
2022/01/25 02:36:30;;;;;;;0.00;0.00;;;;;;;;;;1723691;28;20231;-61
2022/01/25 02:37:21;;;;;;;0.00;0.00;;;;;;;;;;1720914;28;20273;-62
2022/01/25 02:38:14;;;;;;;0.00;0.00;;;;;;;;;;1723670;28;20672;-61
2022/01/25 02:39:05;;;;;;;0.00;0.00;;;;;;;;;;1722258;28;20200;-61
2022/01/25 02:39:58;;;;;;;0.00;0.00;;;;;;;;;;1722688;28;20228;-61
2022/01/25 02:40:49;;;;;;;0.00;0.00;;;;;;;;;;1720385;28;20247;-62
2022/01/25 02:41:41;;;;;;;0.00;0.00;;;;;;;;;;1722852;28;20238;-61
2022/01/25 02:42:32;;;;;;;0.00;0.00;;;;;;;;;;1720845;28;20219;-62
2022/01/25 02:43:25;;;;;;;0.10;0.10;;;;;;;;;;1720702;28;20220;-62
2022/01/25 02:44:23;;;;;;;0.10;0.10;;;;;;;;;;1723832;28;20225;-62
2022/01/25 02:45:17;;;;;;;0.00;0.00;;;;;;;;;;1720382;28;20283;-62
2022/01/25 02:48:30;;;;;;;0.00;0.00;;;;;;;;;;1717033;28;20212;-62
2022/01/25 02:49:22;;;;;;;0.00;0.00;;;;;;;;;;1720563;28;20231;-62
2022/01/25 02:50:13;;;;;;;0.03;0.03;;;;;;;;;;1719949;28;20353;-62
2022/01/25 02:51:07;;;;;;;0.00;0.00;;;;;;;;;;1722807;28;20721;-62
2022/01/25 02:52:00;;;;;;;0.10;0.10;;;;;;;;;;1720895;28;20205;-62
2022/01/25 02:52:52;;;;;;;0.00;0.00;;;;;;;;;;1722852;28;20227;-61
2022/01/25 02:53:43;;;;;;;0.00;0.00;;;;;;;;;;1722057;28;20223;-61
2022/01/25 02:54:38;;;;;;;0.00;0.00;;;;;;;;;;1723879;28;20678;-62
2022/01/25 02:55:30;;;;;;;0.10;0.10;;;;;;;;;;1718237;28;20475;-62
2022/01/25 02:56:23;;;;;;;0.00;0.00;;;;;;;;;;1723335;28;20193;-62
2022/01/25 02:57:14;;;;;;;0.00;0.00;;;;;;;;;;1719874;28;20720;-62
2022/01/25 02:58:06;;;;;;;0.00;0.00;;;;;;;;;;1723666;28;20197;-62
2022/01/25 02:58:57;;;;;;;0.00;0.00;;;;;;;;;;1721735;28;20205;-62
2022/01/25 02:59:50;;;;;;;0.00;0.00;;;;;;;;;;1724390;28;20196;-62
2022/01/25 03:00:41;;;;;;;0.00;0.00;;;;;;;;;;1719409;28;20694;-62
2022/01/25 03:01:33;;;;;;;0.00;0.00;;;;;;;;;;1724198;28;20201;-62
2022/01/25 03:02:25;;;;;;;0.00;0.00;;;;;;;;;;1722572;28;20212;-62
2022/01/25 03:03:17;;;;;;;0.10;0.10;;;;;;;;;;1723737;28;20667;-62
2022/01/25 03:04:08;;;;;;;0.00;0.00;;;;;;;;;;1720616;28;20213;-62
2022/01/25 03:05:00;;;;;;;0.00;0.00;;;;;;;;;;1723854;28;20219;-62
2022/01/25 03:05:52;;;;;;;0.00;0.00;;;;;;;;;;1719309;28;20240;-62
2022/01/25 03:06:45;;;;;;;0.00;0.00;;;;;;;;;;1723778;28;20216;-62
2022/01/25 03:07:37;;;;;;;0.00;0.00;;;;;;;;;;1721299;28;20209;-62
2022/01/25 03:08:30;;;;;;;0.00;0.00;;;;;;;;;;1721893;28;20212;-62
2022/01/25 03:09:21;;;;;;;0.05;0.05;;;;;;;;;;1724141;28;20212;-62
2022/01/25 03:10:13;;;;;;;0.10;0.10;;;;;;;;;;1721746;28;20257;-62
2022/01/25 03:11:04;;;;;;;0.00;0.00;;;;;;;;;;1723759;28;20237;-62
2022/01/25 03:11:57;;;;;;;0.00;0.00;;;;;;;;;;1722147;28;20308;-62
2022/01/25 03:12:53;;;;;;;0.20;0.20;;;;;;;;;;1724316;28;20212;-61
2022/01/25 03:13:50;;;;;;;0.00;0.00;;;;;;;;;;1723135;28;20193;-62
2022/01/25 03:14:59;;;;;;;0.00;0.00;;;;;;;;;;1723967;28;20188;-62
2022/01/25 03:15:59;;;;;;;0.00;0.00;;;;;;;;;;1719204;28;20319;-61
2022/01/25 03:17:05;;;;;;;0.00;0.00;;;;;;;;;;1721794;28;20232;-62
2022/01/25 03:18:01;;;;;;;0.00;0.00;;;;;;;;;;1724731;28;20192;-62
2022/01/25 03:18:55;;;;;;;0.00;0.00;;;;;;;;;;1720868;28;20232;-62
2022/01/25 03:20:01;;;;;;;0.00;0.00;;;;;;;;;;1724000;28;20197;-61
2022/01/25 03:21:01;;;;;;;0.00;0.00;;;;;;;;;;1721051;28;20236;-62
2022/01/25 03:21:55;;;;;;;0.00;0.00;;;;;;;;;;1722706;28;20204;-62
2022/01/25 03:22:57;;;;;;;0.00;0.00;;;;;;;;;;1724483;28;20248;-61
2022/01/25 03:23:51;;;;;;;0.00;0.00;;;;;;;;;;1737072;28;20189;-61
2022/01/25 03:24:42;;;;;;;0.00;0.00;;;;;;;;;;1717778;28;20700;-62
2022/01/25 03:25:34;;;;;;;0.00;0.00;;;;;;;;;;1718304;28;20289;-62
2022/01/25 03:26:26;;;;;;;0.00;0.00;;;;;;;;;;1723716;28;20651;-62
2022/01/25 03:27:18;;;;;;;0.00;0.00;;;;;;;;;;1720634;28;20582;-62
2022/01/25 03:28:09;;;;;;;0.00;0.00;;;;;;;;;;1724546;28;20204;-62
2022/01/25 03:29:01;;;;;;;0.00;0.00;;;;;;;;;;1722304;28;20200;-62
2022/01/25 03:29:52;;;;;;;0.00;0.00;;;;;;;;;;1724114;28;20499;-62
2022/01/25 03:30:45;;;;;;;0.00;0.00;;;;;;;;;;1719911;28;20727;-62
2022/01/25 03:31:36;;;;;;;0.00;0.00;;;;;;;;;;1723950;28;20227;-62
2022/01/25 03:32:29;;;;;;;0.00;0.00;;;;;;;;;;1720497;28;20845;-62
2022/01/25 03:33:22;;;;;;;0.00;0.00;;;;;;;;;;1722609;28;20683;-62
2022/01/25 03:34:14;;;;;;;0.00;0.00;;;;;;;;;;1723622;28;20265;-62
2022/01/25 03:35:06;;;;;;;0.00;0.00;;;;;;;;;;1722187;28;20208;-62
2022/01/25 03:35:57;;;;;;;0.00;0.00;;;;;;;;;;1718740;28;20236;-62
2022/01/25 03:36:49;;;;;;;0.00;0.00;;;;;;;;;;1759551;22;20709;-62
2022/01/25 03:37:42;;;;;;;0.00;0.00;;;;;;;;;;1767065;27;20237;-62
2022/01/25 03:38:34;;;;;;;0.00;0.00;;;;;;;;;;1766046;27;20248;-61
2022/01/25 03:39:26;;;;;;;0.00;0.00;;;;;;;;;;1766367;27;20244;-61
2022/01/25 03:40:18;;;;;;;0.00;0.00;;;;;;;;;;1764504;27;20262;-62
2022/01/25 03:41:11;;;;;;;0.00;0.00;;;;;;;;;;1766242;27;20609;-62
2022/01/25 03:42:08;;;;;;;0.00;0.00;;;;;;;;;;1766116;27;20200;-62
2022/01/25 03:42:59;;;;;;;0.00;0.00;;;;;;;;;;1759914;28;20200;-62
2022/01/25 03:43:54;;;;;;;0.00;0.00;;;;;;;;;;1765283;27;20224;-62
2022/01/25 03:44:46;;;;;;;0.00;0.00;;;;;;;;;;1766735;27;20235;-62
2022/01/25 03:45:41;;;;;;;0.10;0.10;;;;;;;;;;1763317;27;20219;-62
2022/01/25 03:46:41;;;;;;;0.10;0.10;;;;;;;;;;1766508;27;20406;-62
2022/01/25 03:47:44;;;;;;;0.00;0.00;;;;;;;;;;1766042;27;20188;-62
2022/01/25 03:49:50;;;;;;;0.00;0.00;;;;;;;;;;1759808;28;20184;-63
2022/01/25 03:50:42;;;;;;;0.00;0.00;;;;;;;;;;1762903;27;20228;-62
2022/01/25 03:51:34;;;;;;;0.00;0.00;;;;;;;;;;1766029;27;20200;-62
2022/01/25 03:52:29;;;;;;;0.00;0.00;;;;;;;;;;1766473;27;20491;-62
2022/01/25 03:53:23;;;;;;;0.00;0.00;;;;;;;;;;1766265;27;20303;-61
2022/01/25 03:54:14;;;;;;;0.00;0.00;;;;;;;;;;1766112;27;20200;-61
2022/01/25 03:55:07;;;;;;;0.00;0.00;;;;;;;;;;1766275;27;20199;-61
2022/01/25 03:55:58;;;;;;;0.00;0.00;;;;;;;;;;1761695;27;20232;-61
2022/01/25 03:56:50;;;;;;;0.00;0.00;;;;;;;;;;1765373;27;20427;-61
2022/01/25 03:57:42;;;;;;;0.00;0.00;;;;;;;;;;1766425;27;20219;-61
2022/01/25 03:58:34;;;;;;;0.00;0.00;;;;;;;;;;1765655;27;20245;-61
2022/01/25 03:59:25;;;;;;;0.00;0.00;;;;;;;;;;1766610;27;20689;-61
2022/01/25 04:00:17;;;;;;;0.00;0.00;;;;;;;;;;1763884;27;20661;-62
2022/01/25 04:01:09;;;;;;;0.00;0.00;;;;;;;;;;1764486;27;20713;-66
2022/01/25 04:02:01;;;;;;;0.00;0.00;;;;;;;;;;1766271;27;20291;-62
2022/01/25 04:02:56;;;;;;;0.05;0.05;;;;;;;;;;1766028;27;20581;-62
2022/01/25 04:03:57;;;;;;;0.00;0.00;;;;;;;;;;1765344;27;20188;-62
2022/01/25 04:04:50;;;;;;;0.00;0.00;;;;;;;;;;1759760;28;20205;-62
2022/01/25 04:05:50;;;;;;;0.00;0.00;;;;;;;;;;1763391;27;20233;-62
2022/01/25 04:06:43;;;;;;;0.00;0.00;;;;;;;;;;1765282;27;20228;-62
2022/01/25 04:07:45;;;;;;;0.00;0.00;;;;;;;;;;1766833;27;20604;-62
2022/01/25 04:08:38;;;;;;;0.03;0.03;;;;;;;;;;1765886;27;20223;-62
2022/01/25 04:09:30;;;;;;;0.00;0.00;;;;;;;;;;1765715;27;20205;-61
2022/01/25 04:10:22;;;;;;;0.10;0.10;;;;;;;;;;1761449;27;20598;-62
2022/01/25 04:11:14;;;;;;;0.00;0.00;;;;;;;;;;1765474;27;20231;-61
2022/01/25 04:12:07;;;;;;;0.00;0.00;;;;;;;;;;1765893;27;20591;-61
2022/01/25 04:12:58;;;;;;;0.00;0.00;;;;;;;;;;1766453;27;20196;-62
2022/01/25 04:13:52;;;;;;;0.00;0.00;;;;;;;;;;1764796;27;20619;-61
2022/01/25 04:14:43;;;;;;;0.00;0.00;;;;;;;;;;1766618;27;20249;-61
2022/01/25 04:15:36;;;;;;;0.00;0.00;;;;;;;;;;1761348;27;20300;-61
2022/01/25 04:16:32;;;;;;;0.00;0.00;;;;;;;;;;1766840;27;20224;-62
2022/01/25 04:17:24;;;;;;;0.00;0.00;;;;;;;;;;1766638;27;20204;-62
2022/01/25 04:18:28;;;;;;;0.00;0.00;;;;;;;;;;1767036;27;20293;-62
2022/01/25 04:19:29;;;;;;;0.00;0.00;;;;;;;;;;1764489;27;20670;-61
2022/01/25 04:20:25;;;;;;;0.00;0.00;;;;;;;;;;1763552;27;20216;-62
2022/01/25 04:21:29;;;;;;;0.00;0.00;;;;;;;;;;1766421;27;20730;-62
2022/01/25 04:25:02;;;;;;;0.00;0.00;;;;;;;;;;1766888;27;20183;-61
2022/01/25 04:25:54;;;;;;;0.00;0.00;;;;;;;;;;1763599;27;20232;-61
2022/01/25 04:26:45;;;;;;;0.00;0.00;;;;;;;;;;1765685;27;20278;-61
2022/01/25 04:27:38;;;;;;;0.00;0.00;;;;;;;;;;1766423;27;20496;-61
2022/01/25 04:28:29;;;;;;;0.00;0.00;;;;;;;;;;1765737;27;20212;-61
2022/01/25 04:29:22;;;;;;;0.00;0.00;;;;;;;;;;1766743;27;20203;-62
2022/01/25 04:30:14;;;;;;;0.00;0.00;;;;;;;;;;1763510;27;20625;-62
2022/01/25 04:31:05;;;;;;;0.00;0.00;;;;;;;;;;1765564;27;20273;-62
2022/01/25 04:31:57;;;;;;;0.00;0.00;;;;;;;;;;1766149;27;20633;-61
2022/01/25 04:32:56;;;;;;;0.00;0.00;;;;;;;;;;1766413;27;20227;-61
2022/01/25 04:34:08;;;;;;;0.08;0.08;;;;;;;;;;1764832;27;20193;-62
2022/01/25 04:35:13;;;;;;;0.00;0.00;;;;;;;;;;1760578;27;20181;-61
2022/01/25 04:36:24;;;;;;;0.00;0.00;;;;;;;;;;1761723;27;20288;-62
2022/01/25 04:49:06;;;;;;;0.00;0.00;;;;;;;;;;1765727;27;20697;-62
2022/01/25 04:49:58;;;;;;;0.00;0.00;;;;;;;;;;1765915;27;20184;-62
2022/01/25 04:51:16;;;;;;;0.00;0.00;;;;;;;;;;1763212;27;20227;-62
2022/01/25 04:52:11;;;;;;;0.10;0.10;;;;;;;;;;1765828;27;20189;-62
2022/01/25 04:53:11;;;;;;;0.00;0.00;;;;;;;;;;1758569;28;20197;-62
2022/01/25 04:54:08;;;;;;;0.00;0.00;;;;;;;;;;1765837;27;20307;-61
2022/01/25 04:55:10;;;;;;;0.00;0.00;;;;;;;;;;1765767;27;20183;-61
2022/01/25 04:56:08;;;;;;;0.00;0.00;;;;;;;;;;1761574;27;20240;-62
2022/01/25 04:57:13;;;;;;;0.00;0.00;;;;;;;;;;1765303;27;20276;-62
2022/01/25 04:58:11;;;;;;;0.00;0.00;;;;;;;;;;1759433;28;20869;-62
2022/01/25 04:59:17;;;;;;;0.10;0.10;;;;;;;;;;1764852;27;20253;-62
2022/01/25 05:00:16;;;;;;;0.05;0.05;;;;;;;;;;1764814;27;20595;-62
2022/01/25 05:01:07;;;;;;;0.00;0.00;;;;;;;;;;1762609;27;20228;-62
2022/01/25 05:02:04;;;;;;;0.00;0.00;;;;;;;;;;1765883;27;20201;-61
2022/01/25 05:03:05;;;;;;;0.10;0.10;;;;;;;;;;1766038;27;20193;-62
2022/01/25 05:04:02;;;;;;;0.00;0.00;;;;;;;;;;1766119;27;20249;-62
2022/01/25 05:05:00;;;;;;;0.00;0.00;;;;;;;;;;1765746;27;20191;-61
2022/01/25 05:05:57;;;;;;;0.00;0.00;;;;;;;;;;1763367;27;20242;-62
2022/01/25 05:06:52;;;;;;;0.00;0.00;;;;;;;;;;1766179;27;20216;-62
2022/01/25 05:07:49;;;;;;;0.00;0.00;;;;;;;;;;1766618;27;20249;-61
2022/01/25 05:08:46;;;;;;;0.00;0.00;;;;;;;;;;1765955;27;20224;-62
2022/01/25 05:09:38;;;;;;;0.00;0.00;;;;;;;;;;1766137;27;20496;-62
2022/01/25 05:10:37;;;;;;;0.00;0.00;;;;;;;;;;1762975;27;20224;-62
2022/01/25 05:11:31;;;;;;;0.00;0.00;;;;;;;;;;1758907;28;20249;-62
2022/01/25 05:12:34;;;;;;;0.00;0.00;;;;;;;;;;1765783;27;20616;-62
2022/01/25 05:13:40;;;;;;;0.00;0.00;;;;;;;;;;1765515;27;20241;-62
2022/01/25 05:14:35;;;;;;;0.00;0.00;;;;;;;;;;1766314;27;20203;-62
2022/01/25 05:15:48;;;;;;;0.00;0.00;;;;;;;;;;1762961;27;20195;-62
2022/01/25 05:16:49;;;;;;;0.00;0.00;;;;;;;;;;1760015;28;20254;-61
2022/01/25 05:17:45;;;;;;;0.00;0.00;;;;;;;;;;1765596;27;20467;-61
2022/01/25 05:18:42;;;;;;;0.00;0.00;;;;;;;;;;1765853;27;20492;-62
2022/01/25 05:22:05;;;;;;;0.20;0.20;;;;;;;;;;1764487;27;20717;-62
2022/01/25 05:22:57;;;;;;;0.00;0.00;;;;;;;;;;1765985;27;20195;-61
2022/01/25 05:23:48;;;;;;;0.00;0.00;;;;;;;;;;1761853;27;20273;-62
2022/01/25 05:24:44;;;;;;;0.00;0.00;;;;;;;;;;1766182;27;20196;-61
2022/01/25 05:25:37;;;;;;;0.10;0.10;;;;;;;;;;1762833;27;20235;-61
2022/01/25 05:26:29;;;;;;;0.00;0.00;;;;;;;;;;1766453;27;20231;-62
2022/01/25 05:27:22;;;;;;;0.00;0.00;;;;;;;;;;1765732;27;20200;-61
2022/01/25 05:28:14;;;;;;;0.00;0.00;;;;;;;;;;1766035;27;20210;-61
2022/01/25 05:29:05;;;;;;;0.00;0.00;;;;;;;;;;1765669;27;20207;-61
2022/01/25 05:29:57;;;;;;;0.00;0.00;;;;;;;;;;1764631;27;20224;-61
2022/01/25 05:30:49;;;;;;;0.00;0.00;;;;;;;;;;1763359;28;20314;-62
2022/01/25 05:31:41;;;;;;;0.00;0.00;;;;;;;;;;1766357;27;20196;-61
2022/01/25 05:32:34;;;;;;;0.00;0.00;;;;;;;;;;1766338;27;20204;-62
2022/01/25 05:33:26;;;;;;;0.00;0.00;;;;;;;;;;1765276;27;20204;-61
2022/01/25 05:34:17;;;;;;;0.00;0.00;;;;;;;;;;1766184;27;20199;-62
2022/01/25 05:35:10;;;;;;;0.10;0.10;;;;;;;;;;1764767;27;20610;-61
2022/01/25 05:36:01;;;;;;;0.00;0.00;;;;;;;;;;1763642;28;20763;-62
2022/01/25 05:36:54;;;;;;;0.00;0.00;;;;;;;;;;1739603;28;20429;-61
2022/01/25 05:37:45;;;;;;;0.00;0.00;;;;;;;;;;1730725;28;20628;-61
2022/01/25 05:38:37;;;;;;;0.00;0.00;;;;;;;;;;1731491;28;20214;-61
2022/01/25 05:39:32;;;;;;;0.00;0.00;;;;;;;;;;1730148;28;20747;-62
2022/01/25 05:40:40;;;;;;;0.00;0.00;;;;;;;;;;1728458;28;20204;-62
2022/01/25 05:41:33;;;;;;;0.00;0.00;;;;;;;;;;1723555;28;20678;-61
2022/01/25 05:42:51;;;;;;;0.00;0.00;;;;;;;;;;1729662;28;20295;-61
2022/01/25 05:44:58;;;;;;;0.00;0.00;;;;;;;;;;1730250;28;20197;-61
2022/01/25 05:46:01;;;;;;;0.10;0.10;;;;;;;;;;1728575;28;20231;-61
2022/01/25 05:47:05;;;;;;;0.00;0.00;;;;;;;;;;1729854;28;20303;-61
2022/01/25 05:47:57;;;;;;;0.03;0.03;;;;;;;;;;1730209;28;20199;-62
2022/01/25 05:48:48;;;;;;;0.00;0.00;;;;;;;;;;1729653;28;20252;-61
2022/01/25 05:49:43;;;;;;;0.00;0.00;;;;;;;;;;1730839;28;20696;-61
2022/01/25 05:50:35;;;;;;;0.00;0.00;;;;;;;;;;1728073;28;20613;-61
2022/01/25 05:51:27;;;;;;;0.00;0.00;;;;;;;;;;1730302;28;20204;-62
2022/01/25 05:52:18;;;;;;;0.00;0.00;;;;;;;;;;1731178;28;20256;-60
2022/01/25 05:53:10;;;;;;;0.10;0.10;;;;;;;;;;1730225;28;20480;-62
2022/01/25 05:54:01;;;;;;;0.10;0.10;;;;;;;;;;1729355;28;20662;-61
2022/01/25 05:54:56;;;;;;;0.10;0.10;;;;;;;;;;1730551;28;20681;-63
2022/01/25 05:55:47;;;;;;;0.10;0.10;;;;;;;;;;1728211;28;20492;-61
2022/01/25 05:56:41;;;;;;;0.00;0.00;;;;;;;;;;1730265;28;20247;-63
2022/01/25 05:57:32;;;;;;;0.10;0.10;;;;;;;;;;1729886;28;20211;-61
2022/01/25 05:58:25;;;;;;;0.00;0.00;;;;;;;;;;1730143;28;20203;-62
2022/01/25 05:59:16;;;;;;;0.00;0.00;;;;;;;;;;1730468;28;20582;-61
2022/01/25 06:00:09;;;;;;;0.00;0.00;;;;;;;;;;1729879;28;20287;-60
2022/01/25 06:01:00;;;;;;;0.00;0.00;;;;;;;;;;1727698;28;20231;-61
2022/01/25 06:01:52;;;;;;;0.10;0.10;;;;;;;;;;1731152;28;20203;-62
2022/01/25 06:02:45;;;;;;;0.00;0.00;;;;;;;;;;1730101;28;20696;-62
2022/01/25 06:03:40;;;;;;;0.20;0.20;;;;;;;;;;1730857;28;20595;-60
2022/01/25 06:04:32;;;;;;;0.10;0.00;;;;;;;;;;1730748;28;20200;-61
2022/01/25 06:05:25;;;;;;;0.00;0.00;;;;;;;;;;1729219;28;20350;-61
2022/01/25 06:06:16;;;;;;;0.00;0.00;;;;;;;;;;1729722;28;20641;-61
2022/01/25 06:07:08;;;;;;;0.00;0.00;;;;;;;;;;1731086;28;20622;-61
2022/01/25 06:07:59;;;;;;;0.00;0.00;;;;;;;;;;1729996;28;20200;-61
2022/01/25 06:08:51;;;;;;;0.00;0.00;;;;;;;;;;1730645;28;20978;-61
2022/01/25 06:09:43;;;;;;;0.00;0.00;;;;;;;;;;1723200;28;20204;-61
2022/01/25 06:10:35;;;;;;;0.00;0.00;;;;;;;;;;1727107;28;20299;-61
2022/01/25 06:11:26;;;;;;;0.00;0.00;;;;;;;;;;1730586;28;20578;-61
2022/01/25 06:12:20;;;;;;;0.00;0.00;;;;;;;;;;1730755;28;20260;-62
2022/01/25 06:13:11;;;;;;;0.00;0.00;;;;;;;;;;1729620;28;20212;-62
2022/01/25 06:14:03;;;;;;;0.00;0.00;;;;;;;;;;1730124;28;20282;-61
2022/01/25 06:14:55;;;;;;;0.00;0.00;;;;;;;;;;1730434;28;20573;-61
2022/01/25 06:15:47;;;;;;;0.00;0.00;;;;;;;;;;1728005;28;20235;-61
2022/01/25 06:16:39;;;;;;;0.00;0.00;;;;;;;;;;1731650;28;20250;-63
2022/01/25 06:17:31;;;;;;;0.10;0.10;;;;;;;;;;1730010;28;20208;-62
2022/01/25 06:18:22;;;;;;;0.00;0.00;;;;;;;;;;1731345;28;20211;-62
2022/01/25 06:19:14;;;;;;;0.00;0.00;;;;;;;;;;1729757;28;20235;-60
2022/01/25 06:20:06;;;;;;;0.00;0.00;;;;;;;;;;1729466;28;20644;-60
2022/01/25 06:20:58;;;;;;;0.00;0.00;;;;;;;;;;1728664;28;20317;-60
2022/01/25 06:21:50;;;;;;;0.00;0.00;;;;;;;;;;1729998;28;20204;-61
2022/01/25 06:22:42;;;;;;;0.00;0.00;;;;;;;;;;1730447;28;20298;-61
2022/01/25 06:23:33;;;;;;;0.00;0.00;;;;;;;;;;1731168;28;20763;-63
2022/01/25 06:24:25;;;;;;;0.00;0.00;;;;;;;;;;1730111;28;20553;-60
2022/01/25 06:25:17;;;;;;;0.00;0.00;;;;;;;;;;1728024;28;20207;-63
2022/01/25 06:26:09;;;;;;;0.03;0.03;;;;;;;;;;1729846;28;20243;-61
2022/01/25 06:27:01;;;;;;;0.00;0.00;;;;;;;;;;1731256;28;20211;-60
2022/01/25 06:27:54;;;;;;;0.00;0.00;;;;;;;;;;1730468;28;20204;-61
2022/01/25 06:28:46;;;;;;;0.00;0.00;;;;;;;;;;1731273;28;20203;-60
2022/01/25 06:29:41;;;;;;;0.00;0.00;;;;;;;;;;1729642;28;20212;-60
2022/01/25 06:30:33;;;;;;;0.00;0.00;;;;;;;;;;1728837;28;20801;-61
2022/01/25 06:31:24;;;;;;;0.00;0.00;;;;;;;;;;1729997;28;20595;-60
2022/01/25 06:32:17;;;;;;;0.00;0.00;;;;;;;;;;1731338;28;20203;-61